Time;durP1;ratioP1;P1;durP2;ratioP2;P2;SDS_P1;SDS_P2;PMS_P1;PMS_P2;Temp;Humidity;BMP_temperature;BMP_pressure;BME280_temperature;BME280_humidity;BME280_pressure;Samples;Min_cycle;Max_cycle;Signal;HPM_P1;HPM_P2
2020/12/27 00:00:11;;;;;;;;;0.25;0.00;18.70;79.90;;;17.32;57.63;102210.03;5088329;28;8792;-56
2020/12/27 00:02:38;;;;;;;;;1.00;1.00;18.70;79.90;;;17.30;57.75;102206.63;5089059;28;9520;-55
2020/12/27 00:05:09;;;;;;;;;1.00;1.00;18.70;79.70;;;17.30;57.75;102203.09;5090601;28;8816;-58
2020/12/27 00:07:36;;;;;;;;;0.75;0.75;18.60;79.90;;;17.27;57.75;102204.16;5088290;28;8778;-58
2020/12/27 00:10:06;;;;;;;;;0.50;0.00;18.60;79.80;;;17.28;57.45;102207.72;5089378;28;9585;-58
2020/12/27 00:12:33;;;;;;;;;2.25;2.25;18.60;79.70;;;17.25;57.35;102210.56;5090859;28;8818;-57
2020/12/27 00:15:01;;;;;;;;;0.00;0.00;18.50;79.70;;;17.24;57.52;102201.72;5074592;28;8896;-58
2020/12/27 00:17:28;;;;;;;;;1.00;1.00;18.60;79.50;;;17.23;57.99;102193.84;5085118;28;8778;-59
2020/12/27 00:19:55;;;;;;;;;0.50;0.50;18.50;79.70;;;17.19;58.12;102187.00;5089948;28;8816;-57
2020/12/27 00:22:22;;;;;;;;;0.75;0.25;18.50;80.10;;;17.14;58.26;102193.50;5089639;28;8788;-58
2020/12/27 00:24:49;;;;;;;;;0.75;0.00;18.30;80.60;;;17.09;58.34;102198.31;5085419;28;8840;-58
2020/12/27 00:27:18;;;;;;;;;1.00;0.75;18.20;80.90;;;17.10;58.38;102216.06;5091784;28;8798;-59
2020/12/27 00:29:45;;;;;;;;;1.00;0.50;18.20;81.40;;;17.06;59.66;102205.69;5088550;28;8808;-59
2020/12/27 00:32:13;;;;;;;;;2.25;0.50;18.10;81.90;;;17.03;59.10;102196.09;5075635;28;9556;-59
2020/12/27 00:34:39;;;;;;;;;1.25;0.50;18.10;81.80;;;17.03;59.01;102189.91;5084403;28;8814;-59
2020/12/27 00:37:06;;;;;;;;;0.00;0.00;18.10;82.30;;;16.99;59.25;102186.59;5084871;28;9489;-59
2020/12/27 00:39:33;;;;;;;;;1.25;0.75;18.00;82.20;;;16.95;58.95;102187.78;5090882;28;8910;-58
2020/12/27 00:42:02;;;;;;;;;1.00;0.25;17.90;82.00;;;16.93;58.92;102189.69;5087673;28;9568;-59
2020/12/27 00:44:29;;;;;;;;;0.25;0.00;18.00;81.80;;;16.90;59.14;102192.59;5089595;28;8796;-58
2020/12/27 00:46:56;;;;;;;;;0.50;0.50;17.90;82.00;;;16.90;59.55;102195.25;5091529;28;8784;-59
2020/12/27 00:49:23;;;;;;;;;0.00;0.00;17.90;81.70;;;16.86;59.23;102194.59;5091138;28;8784;-59
2020/12/27 00:51:51;;;;;;;;;0.50;0.50;18.00;81.80;;;16.87;59.92;102187.47;5088703;28;8772;-58
2020/12/27 00:54:18;;;;;;;;;3.00;2.00;18.00;82.20;;;16.85;59.61;102170.72;5092639;28;8776;-59
2020/12/27 00:56:51;;;;;;;;;2.00;1.50;17.90;81.90;;;16.84;59.49;102185.88;5092241;28;8804;-59
2020/12/27 00:59:18;;;;;;;;;1.75;1.00;17.90;82.10;;;16.82;59.44;102181.59;5088324;28;8874;-60
2020/12/27 01:01:45;;;;;;;;;1.00;1.00;17.90;82.20;;;16.80;59.94;102183.53;5091116;28;8819;-59
2020/12/27 01:04:13;;;;;;;;;3.75;1.00;17.80;82.60;;;16.77;59.79;102181.91;5096553;28;8807;-59
2020/12/27 01:06:40;;;;;;;;;0.00;0.00;17.90;82.50;;;16.74;60.08;102168.78;5090820;28;8811;-59
2020/12/27 01:09:07;;;;;;;;;0.00;0.00;17.80;82.40;;;16.74;60.24;102166.09;5091389;28;8796;-59
2020/12/27 01:11:33;;;;;;;;;1.25;1.25;17.80;82.80;;;16.73;62.75;102168.88;5089522;28;8907;-56
2020/12/27 01:14:00;;;;;;;;;3.00;2.00;17.80;84.80;;;16.80;65.01;102171.03;5093078;28;8891;-57
2020/12/27 01:16:27;;;;;;;;;1.25;0.50;18.10;85.80;;;16.88;64.62;102175.81;5073174;28;8792;-58
2020/12/27 01:18:54;;;;;;;;;2.25;2.25;18.40;85.70;;;17.05;64.84;102179.97;5090460;28;8804;-58
2020/12/27 01:21:30;;;;;;;;;0.50;0.50;18.70;85.50;;;17.14;65.25;102184.66;5091618;28;8788;-58
2020/12/27 01:23:57;;;;;;;;;0.50;0.50;18.80;84.00;;;17.19;66.08;102187.84;5088170;28;8812;-56
2020/12/27 01:26:35;;;;;;;;;2.25;1.00;19.10;83.90;;;17.25;66.28;102178.53;5080601;28;8831;-58
2020/12/27 01:29:04;;;;;;;;;0.25;0.25;19.20;83.70;;;17.29;66.85;102178.19;5090423;28;8765;-58
2020/12/27 01:31:31;;;;;;;;;1.50;1.25;18.90;83.90;;;17.31;67.76;102181.63;5082637;28;8790;-58
2020/12/27 01:33:58;;;;;;;;;1.50;1.00;19.20;86.20;;;17.36;67.15;102175.94;5083895;28;8788;-58
2020/12/27 01:36:35;;;;;;;;;2.50;2.50;19.20;84.70;;;17.39;67.05;102167.69;5087882;28;8899;-58
2020/12/27 01:39:07;;;;;;;;;1.75;0.50;19.10;84.10;;;17.43;67.08;102184.34;5093085;28;8796;-58
2020/12/27 01:41:35;;;;;;;;;0.50;0.00;19.10;84.30;;;17.45;66.03;102185.94;5094819;28;9212;-58
2020/12/27 01:44:08;;;;;;;;;1.75;0.75;19.20;84.00;;;17.51;66.65;102198.03;5093588;28;8819;-58
2020/12/27 01:46:38;;;;;;;;;0.75;0.75;19.10;84.30;;;17.51;65.62;102188.19;5092788;28;8881;-58
2020/12/27 01:49:06;;;;;;;;;1.00;1.00;19.10;84.10;;;17.54;66.24;102193.28;5098831;28;8906;-58
2020/12/27 01:51:34;;;;;;;;;2.00;1.00;19.10;84.30;;;17.57;65.95;102193.06;5090088;28;8770;-58
2020/12/27 01:54:03;;;;;;;;;0.50;0.00;19.10;84.20;;;17.60;68.20;102197.34;5089985;28;9485;-59
2020/12/27 01:56:40;;;;;;;;;0.75;0.00;19.40;84.50;;;17.63;66.12;102196.25;5090734;28;8882;-58
2020/12/27 01:59:21;;;;;;;;;1.00;0.75;19.30;84.30;;;17.68;65.34;102194.09;5085605;28;8848;-59
2020/12/27 02:01:48;;;;;;;;;1.50;1.00;19.30;85.10;;;17.68;64.71;102172.72;5071958;28;8804;-58
2020/12/27 02:04:15;;;;;;;;;1.50;1.50;19.50;84.50;;;17.66;64.01;102169.34;5086559;28;8929;-59
2020/12/27 02:06:42;;;;;;;;;0.25;0.25;19.20;84.80;;;17.74;64.92;102165.09;5093527;28;9621;-59
2020/12/27 02:09:12;;;;;;;;;0.00;0.00;19.30;85.20;;;17.84;64.02;102151.09;5092609;28;8800;-59
2020/12/27 02:11:40;;;;;;;;;0.50;0.50;19.60;84.40;;;17.97;64.40;102150.03;5088025;28;8796;-58
2020/12/27 02:14:07;;;;;;;;;1.00;0.00;19.70;84.10;;;18.11;63.57;102148.97;5088365;28;8804;-58
2020/12/27 02:16:34;;;;;;;;;1.50;0.75;19.80;83.60;;;18.23;63.81;102158.75;5087794;28;8792;-58
2020/12/27 02:19:13;;;;;;;;;0.00;0.00;19.90;83.30;;;18.33;64.23;102152.72;5086165;28;9469;-58
2020/12/27 02:21:40;;;;;;;;;0.00;0.00;20.00;83.30;;;18.36;65.43;102147.97;5095270;28;8894;-58
2020/12/27 02:24:06;;;;;;;;;0.20;0.00;20.20;82.60;;;18.37;62.25;102146.16;5093152;28;8812;-56
2020/12/27 02:26:33;;;;;;;;;0.00;0.00;20.10;82.30;;;18.37;65.56;102138.13;5095316;28;8768;-58
2020/12/27 02:29:00;;;;;;;;;0.00;0.00;20.10;82.80;;;18.38;63.12;102134.47;5097318;28;8879;-58
2020/12/27 02:31:28;;;;;;;;;1.00;0.00;20.10;82.90;;;18.39;63.17;102138.84;5094327;28;9457;-58
2020/12/27 02:33:57;;;;;;;;;0.00;0.00;19.90;83.60;;;18.42;63.31;102136.78;5099856;28;8914;-59
2020/12/27 02:36:24;;;;;;;;;0.00;0.00;20.10;83.70;;;18.54;62.77;102134.13;5095180;28;8837;-57
2020/12/27 02:38:51;;;;;;;;;0.50;0.00;20.20;83.70;;;18.57;65.84;102133.88;5091011;28;8819;-58
2020/12/27 02:41:22;;;;;;;;;1.00;0.25;20.20;83.90;;;18.58;64.29;102133.75;5088180;28;8791;-58
2020/12/27 02:43:49;;;;;;;;;0.00;0.00;20.30;82.30;;;18.59;63.96;102129.25;5083112;28;8887;-59
2020/12/27 02:46:25;;;;;;;;;0.00;0.00;20.20;83.90;;;18.59;61.88;102122.06;5087300;28;8768;-58
2020/12/27 02:48:53;;;;;;;;;0.00;0.00;20.20;82.30;;;18.62;63.11;102131.69;5087642;28;8866;-58
2020/12/27 02:51:24;;;;;;;;;1.00;0.50;20.20;83.50;;;18.68;62.47;102133.06;5088617;28;9564;-58
2020/12/27 02:53:51;;;;;;;;;0.00;0.00;20.40;82.80;;;18.74;64.30;102138.75;5087556;28;8768;-58
2020/12/27 02:56:26;;;;;;;;;0.00;0.00;20.50;82.70;;;18.75;64.66;102132.47;5085411;28;8756;-58
2020/12/27 02:58:59;;;;;;;;;0.00;0.00;20.40;81.90;;;18.77;64.20;102137.69;5095951;28;8780;-58
2020/12/27 03:01:27;;;;;;;;;0.00;0.00;20.30;81.60;;;18.80;64.96;102149.03;5093004;28;8748;-59
2020/12/27 03:03:54;;;;;;;;;0.40;0.00;20.40;82.30;;;18.79;61.95;102149.97;5091922;28;8841;-58
2020/12/27 03:06:21;;;;;;;;;0.00;0.00;20.30;82.70;;;18.79;63.55;102152.66;5085685;28;8797;-59
2020/12/27 03:08:54;;;;;;;;;0.40;0.20;20.30;84.00;;;18.80;61.87;102145.47;5090529;28;8802;-58
2020/12/27 03:11:25;;;;;;;;;0.00;0.00;20.30;82.60;;;18.78;61.53;102148.28;5089555;28;8783;-59
2020/12/27 03:13:53;;;;;;;;;0.00;0.00;20.20;83.40;;;18.78;62.60;102142.94;5100014;28;8825;-58
2020/12/27 03:16:21;;;;;;;;;0.00;0.00;20.30;83.90;;;18.83;62.18;102146.09;5091557;28;8872;-59
2020/12/27 03:18:48;;;;;;;;;0.00;0.00;20.30;83.50;;;18.88;63.47;102148.41;5092084;28;8788;-58
2020/12/27 03:21:16;;;;;;;;;1.00;0.00;20.40;83.50;;;18.91;64.90;102148.16;5101053;28;8867;-58
2020/12/27 03:23:43;;;;;;;;;0.00;0.00;20.60;82.20;;;18.93;63.71;102135.50;5089991;28;9520;-59
2020/12/27 03:26:10;;;;;;;;;0.25;0.25;20.50;81.80;;;18.93;63.58;102126.59;5089435;28;8886;-59
2020/12/27 03:28:36;;;;;;;;;1.00;0.60;20.40;82.00;;;18.96;62.45;102140.63;5097840;28;8775;-59
2020/12/27 03:31:22;;;;;;;;;0.00;0.00;20.20;82.30;;;18.96;63.78;102134.41;5085973;28;8762;-59
2020/12/27 03:33:49;;;;;;;;;0.40;0.40;20.40;82.30;;;18.96;61.77;102129.06;5092786;28;8776;-59
2020/12/27 03:36:15;;;;;;;;;1.00;1.00;20.60;82.70;;;18.95;62.14;102130.84;5092551;28;8860;-59
2020/12/27 03:38:42;;;;;;;;;0.00;0.00;20.40;82.80;;;18.97;62.21;102123.56;5088720;28;8902;-59
2020/12/27 03:41:09;;;;;;;;;0.80;0.80;20.40;82.90;;;18.97;62.38;102117.38;5092457;28;8781;-58
2020/12/27 03:43:36;;;;;;;;;2.00;1.00;20.30;84.00;;;18.97;62.35;102106.66;5084227;28;10124;-58
2020/12/27 03:46:03;;;;;;;;;1.00;1.00;20.40;83.80;;;18.95;62.19;102104.09;5093075;28;8780;-59
2020/12/27 03:48:29;;;;;;;;;0.20;0.20;20.20;83.70;;;18.93;65.91;102099.81;5092517;28;8814;-58
2020/12/27 03:50:56;;;;;;;;;0.00;0.00;20.40;83.90;;;18.89;62.79;102098.38;5090683;28;8803;-59
2020/12/27 03:53:23;;;;;;;;;0.00;0.00;20.20;83.50;;;18.86;62.28;102104.84;5090108;28;8792;-59
2020/12/27 03:55:50;;;;;;;;;0.00;0.00;20.10;83.20;;;18.85;61.37;102104.00;5092335;28;8780;-58
2020/12/27 03:58:17;;;;;;;;;0.00;0.00;20.00;83.30;;;18.82;61.37;102090.84;5091995;28;9467;-58
2020/12/27 04:00:43;;;;;;;;;1.00;1.00;20.10;83.50;;;18.81;61.52;102085.63;5089667;28;8768;-59
2020/12/27 04:03:10;;;;;;;;;1.75;0.00;20.10;83.40;;;18.78;61.36;102094.75;5087977;28;8976;-59
2020/12/27 04:05:37;;;;;;;;;3.50;3.50;19.90;83.20;;;18.77;61.42;102092.19;5090495;28;8849;-58
2020/12/27 04:08:04;;;;;;;;;3.50;3.25;20.00;83.60;;;18.75;61.82;102091.41;5092214;28;8784;-59
2020/12/27 04:10:30;;;;;;;;;4.00;4.00;20.00;83.80;;;18.72;62.09;102092.50;5090348;28;8768;-59
2020/12/27 04:12:57;;;;;;;;;8.00;7.00;20.10;83.90;;;18.71;61.96;102092.66;5090465;28;8768;-59
2020/12/27 04:15:24;;;;;;;;;5.75;5.75;20.00;83.90;;;18.68;61.73;102085.72;5090188;28;8880;-59
2020/12/27 04:17:52;;;;;;;;;12.00;11.00;19.90;84.00;;;18.66;61.82;102084.97;5088839;28;8815;-58
2020/12/27 04:20:19;;;;;;;;;13.25;12.75;20.00;84.00;;;18.64;63.15;102084.25;5085826;28;8813;-58
2020/12/27 04:22:52;;;;;;;;;13.00;12.75;19.80;84.20;;;18.63;64.21;102071.84;5085810;28;8775;-58
2020/12/27 04:25:19;;;;;;;;;15.00;14.25;20.10;84.20;;;18.62;64.39;102075.47;5091914;28;8786;-58
2020/12/27 04:27:46;;;;;;;;;13.25;13.25;20.10;85.20;;;18.63;62.68;102077.19;5088754;28;8804;-58
2020/12/27 04:30:13;;;;;;;;;16.00;16.00;19.90;84.00;;;18.60;64.73;102083.66;5089527;28;8852;-58
2020/12/27 04:32:39;;;;;;;;;19.00;19.00;20.00;83.80;;;18.58;62.60;102074.88;5100770;28;8780;-59
2020/12/27 04:35:06;;;;;;;;;19.25;19.25;20.00;83.60;;;18.58;63.10;102064.19;5108189;28;8824;-58
2020/12/27 04:37:33;;;;;;;;;14.50;14.25;19.90;83.50;;;18.55;62.38;102064.44;5089807;28;8810;-58
2020/12/27 04:40:00;;;;;;;;;20.25;19.25;19.90;83.50;;;18.53;62.98;102069.03;5089066;28;8779;-58
2020/12/27 04:42:27;;;;;;;;;22.25;21.75;19.90;83.50;;;18.52;62.05;102066.47;5084037;28;8768;-58
2020/12/27 04:44:56;;;;;;;;;19.00;19.00;19.90;83.60;;;18.50;62.87;102069.31;5088676;28;9508;-59
2020/12/27 04:47:26;;;;;;;;;19.00;18.00;19.70;83.40;;;18.50;62.00;102065.78;5089447;28;8815;-58
2020/12/27 04:49:54;;;;;;;;;22.25;22.00;19.90;83.60;;;18.48;63.24;102057.84;5092213;28;8821;-58
2020/12/27 04:52:22;;;;;;;;;19.50;19.00;20.00;83.60;;;18.48;62.17;102051.66;5091593;28;8811;-58
2020/12/27 04:54:52;;;;;;;;;21.00;19.75;19.90;84.30;;;18.47;62.73;102049.94;5093355;28;8801;-58
2020/12/27 04:57:19;;;;;;;;;21.25;20.50;19.90;83.80;;;18.45;62.57;102058.09;5091949;28;9488;-58
2020/12/27 04:59:48;;;;;;;;;20.25;20.25;19.60;83.80;;;18.46;62.44;102048.25;5090998;28;8802;-58
2020/12/27 05:02:16;;;;;;;;;23.25;21.50;19.90;83.80;;;18.44;62.39;102051.03;5092450;28;8856;-58
2020/12/27 05:04:45;;;;;;;;;18.25;17.50;20.00;84.00;;;18.43;62.44;102042.16;5093034;28;8800;-58
2020/12/27 05:07:18;;;;;;;;;23.75;23.75;19.80;83.90;;;18.40;62.72;102042.41;5090917;28;8775;-58
2020/12/27 05:09:48;;;;;;;;;18.75;17.50;19.70;83.90;;;18.39;63.01;102034.50;5091487;28;8788;-58
2020/12/27 05:12:15;;;;;;;;;21.25;20.75;19.80;83.90;;;18.38;62.49;102039.00;5092000;28;8788;-58
2020/12/27 05:14:41;;;;;;;;;16.50;16.25;19.80;84.00;;;18.37;62.63;102040.00;5096786;28;8925;-58
2020/12/27 05:17:12;;;;;;;;;20.25;20.25;19.80;84.10;;;18.35;62.57;102036.56;5089413;28;9581;-59
2020/12/27 05:19:39;;;;;;;;;17.50;17.50;19.80;84.10;;;18.35;62.51;102039.25;5087550;28;8823;-58
2020/12/27 05:22:11;;;;;;;;;21.00;21.00;19.70;84.10;;;18.34;62.79;102032.22;5087402;28;8919;-58
2020/12/27 05:24:39;;;;;;;;;18.00;18.00;19.80;84.20;;;18.35;62.79;102027.72;5089273;28;8878;-58
2020/12/27 05:27:11;;;;;;;;;20.00;19.75;19.80;84.20;;;18.33;63.35;102021.63;5089278;28;8824;-58
2020/12/27 05:29:39;;;;;;;;;21.50;21.25;19.60;84.10;;;18.31;63.05;102024.41;5091322;28;8796;-58
2020/12/27 05:32:06;;;;;;;;;19.50;19.00;20.00;84.50;;;18.32;63.07;102027.91;5089055;28;8784;-58
2020/12/27 05:34:33;;;;;;;;;17.75;17.00;19.80;84.40;;;18.31;62.97;102028.91;5094501;28;8794;-58
2020/12/27 05:37:06;;;;;;;;;22.00;19.50;19.70;84.40;;;18.30;63.31;102025.38;5092342;28;8848;-58
2020/12/27 05:39:33;;;;;;;;;17.75;17.75;19.70;84.40;;;18.29;63.08;102029.03;5087155;28;9536;-58
2020/12/27 05:42:08;;;;;;;;;16.50;16.50;19.80;84.50;;;18.29;63.26;102036.19;5071216;28;8942;-58
2020/12/27 05:44:36;;;;;;;;;15.75;15.00;19.60;85.00;;;18.27;63.53;102025.63;5090674;28;8839;-58
2020/12/27 05:47:04;;;;;;;;;16.25;16.25;19.70;84.40;;;18.27;63.22;102016.72;5091391;28;8806;-58
2020/12/27 05:49:32;;;;;;;;;20.75;19.75;20.00;84.70;;;18.28;63.32;102018.47;5088858;28;8779;-58
2020/12/27 05:52:00;;;;;;;;;15.25;15.25;19.80;84.50;;;18.27;63.28;102014.06;5082248;28;8827;-58
2020/12/27 05:54:33;;;;;;;;;16.75;16.50;19.70;84.50;;;18.25;63.39;102016.88;5096595;28;8935;-58
2020/12/27 05:57:04;;;;;;;;;15.25;14.50;19.70;84.40;;;18.25;62.88;102005.34;5102940;28;8776;-58
2020/12/27 05:59:36;;;;;;;;;16.00;15.75;19.70;84.30;;;18.23;63.70;102011.63;5090662;28;8790;-58
2020/12/27 06:02:03;;;;;;;;;14.00;13.00;19.60;84.30;;;18.23;63.34;102008.97;5089365;28;8784;-58
2020/12/27 06:04:45;;;;;;;;;15.25;14.75;19.70;84.20;;;18.22;63.42;102001.06;5090121;28;8930;-58
2020/12/27 06:07:37;;;;;;;;;15.00;15.00;19.70;84.40;;;18.23;65.32;102011.63;5087638;28;8778;-58
2020/12/27 06:10:09;;;;;;;;;13.00;13.00;19.70;84.20;;;18.22;64.56;101991.22;5090811;28;8780;-59
2020/12/27 06:12:59;;;;;;;;;15.75;14.25;19.70;84.10;;;18.20;64.19;101984.28;5086941;28;8776;-59
2020/12/27 06:15:30;;;;;;;;;12.50;12.50;19.70;85.20;;;18.25;64.13;101979.44;5090641;28;8823;-58
2020/12/27 06:18:11;;;;;;;;;14.25;13.50;19.80;84.40;;;18.23;64.10;101978.69;5088217;28;8795;-59
2020/12/27 06:20:42;;;;;;;;;12.00;12.00;19.70;84.10;;;18.23;63.13;101971.50;5088808;28;8818;-59
2020/12/27 06:23:10;;;;;;;;;15.75;13.50;19.70;83.80;;;18.22;63.19;101969.81;5088163;28;8780;-58
2020/12/27 06:25:39;;;;;;;;;11.00;11.00;19.60;83.90;;;18.19;62.73;101962.06;5090366;28;8812;-58
2020/12/27 06:28:07;;;;;;;;;12.50;11.50;19.60;83.80;;;18.17;62.85;101964.00;5091735;28;8830;-58
2020/12/27 06:30:44;;;;;;;;;12.25;12.25;19.70;83.90;;;18.14;62.95;101952.66;5095365;28;8779;-58
2020/12/27 06:33:23;;;;;;;;;11.25;10.75;19.40;83.70;;;18.12;63.00;101951.97;5093896;28;8914;-58
2020/12/27 06:35:50;;;;;;;;;14.25;14.25;19.60;83.80;;;18.11;62.71;101964.47;5072415;28;8768;-58
2020/12/27 06:38:23;;;;;;;;;10.00;10.00;19.40;83.70;;;18.10;62.92;101956.59;5088720;28;8910;-59
2020/12/27 06:41:11;;;;;;;;;15.25;14.25;19.50;83.80;;;18.07;62.93;101959.50;5095043;28;8794;-58
2020/12/27 06:43:48;;;;;;;;;10.50;10.50;19.50;83.80;;;18.07;62.80;101965.69;5093097;28;8816;-58
2020/12/27 06:46:28;;;;;;;;;12.00;12.00;19.60;83.80;;;18.03;62.92;101966.91;5093943;28;8904;-58
2020/12/27 06:49:13;;;;;;;;;11.75;11.50;19.60;83.70;;;18.03;62.62;101958.88;5095794;28;8873;-59
2020/12/27 06:51:45;;;;;;;;;12.75;11.50;19.60;83.60;;;18.02;62.41;101964.38;5083805;28;9547;-58
2020/12/27 06:54:12;;;;;;;;;11.00;10.25;19.60;83.50;;;17.99;63.09;101957.44;5094800;28;8780;-59
2020/12/27 06:56:45;;;;;;;;;12.00;11.25;19.40;83.70;;;17.97;63.18;101938.81;5095583;28;8788;-58
2020/12/27 06:59:12;;;;;;;;;11.25;11.25;19.60;84.00;;;17.96;63.40;101944.28;5092586;28;8768;-58
2020/12/27 07:01:39;;;;;;;;;12.25;11.50;19.40;83.90;;;17.95;62.98;101940.75;5092786;28;8780;-60
2020/12/27 07:04:16;;;;;;;;;12.00;12.00;19.40;83.70;;;17.93;63.07;101937.34;5092257;28;8846;-59
2020/12/27 07:06:48;;;;;;;;;10.00;8.50;19.30;83.80;;;17.92;63.07;101941.00;5092273;28;8795;-59
2020/12/27 07:09:27;;;;;;;;;10.00;10.00;19.30;83.60;;;17.91;62.90;101947.34;5091436;28;8792;-60
2020/12/27 07:12:10;;;;;;;;;11.00;11.00;19.30;83.70;;;17.90;63.49;101948.28;5092525;28;8795;-59
2020/12/27 07:14:42;;;;;;;;;8.50;8.50;19.50;83.90;;;17.89;62.90;101941.25;5092775;28;8803;-59
2020/12/27 07:17:11;;;;;;;;;8.50;8.50;19.40;83.60;;;17.89;63.02;101949.28;5094008;28;8756;-59
2020/12/27 07:19:39;;;;;;;;;9.75;9.75;19.30;83.70;;;17.86;63.14;101929.94;5093457;28;8764;-59
2020/12/27 07:22:09;;;;;;;;;4.75;4.75;19.20;83.60;;;17.84;62.92;101938.09;5092406;28;8788;-59
2020/12/27 07:24:39;;;;;;;;;8.75;8.75;19.40;83.70;;;17.84;63.03;101927.41;5088279;28;9515;-59
2020/12/27 07:27:10;;;;;;;;;9.50;9.50;19.30;83.70;;;17.83;63.67;101923.00;5092615;28;8852;-59
2020/12/27 07:29:40;;;;;;;;;9.50;9.00;19.30;83.70;;;17.82;63.18;101928.50;5090938;28;8768;-59
2020/12/27 07:32:07;;;;;;;;;10.75;9.50;19.30;83.70;;;17.81;62.58;101921.44;5092877;28;8810;-58
2020/12/27 07:34:34;;;;;;;;;3.75;3.50;19.20;83.50;;;17.81;62.66;101914.28;5093084;28;8849;-59
2020/12/27 07:37:07;;;;;;;;;9.00;9.00;19.20;83.50;;;17.79;62.87;101919.75;5092757;28;9512;-58
2020/12/27 07:39:58;;;;;;;;;8.50;8.00;19.40;83.60;;;17.78;62.82;101922.50;5091962;28;8764;-58
2020/12/27 07:42:28;;;;;;;;;5.50;5.00;19.20;83.40;;;17.76;63.09;101913.78;5091609;28;8839;-59
2020/12/27 07:45:12;;;;;;;;;8.25;8.25;19.00;83.30;;;17.75;62.59;101915.56;5093683;28;8881;-59
2020/12/27 07:47:41;;;;;;;;;6.00;6.00;19.10;83.40;;;17.75;62.95;101909.38;5093296;28;8792;-59
2020/12/27 07:50:14;;;;;;;;;7.75;5.50;19.30;83.60;;;17.72;62.55;101907.78;5094584;28;8788;-59
2020/12/27 07:52:53;;;;;;;;;7.25;7.25;19.30;83.40;;;17.72;62.63;101907.78;5094397;28;8835;-59
2020/12/27 07:55:28;;;;;;;;;8.00;8.00;19.10;83.40;;;17.72;62.66;101905.13;5093744;28;8784;-59
2020/12/27 07:57:57;;;;;;;;;9.75;8.75;19.20;83.30;;;17.70;62.36;101893.69;5095336;28;8768;-59
2020/12/27 08:00:33;;;;;;;;;6.00;6.00;19.30;83.40;;;17.70;62.38;101892.84;5093971;28;8896;-59
2020/12/27 08:03:09;;;;;;;;;4.75;4.50;19.10;83.30;;;17.66;62.66;101876.22;5094118;28;8776;-59
2020/12/27 08:05:40;;;;;;;;;8.50;8.25;19.10;83.30;;;17.67;63.38;101877.06;5094563;28;8864;-59
2020/12/27 08:08:11;;;;;;;;;3.75;3.75;19.10;83.20;;;17.66;62.74;101870.03;5092808;28;8842;-58
2020/12/27 08:10:40;;;;;;;;;8.00;8.00;19.10;83.30;;;17.65;62.13;101863.81;5094175;28;8802;-59
2020/12/27 08:13:08;;;;;;;;;6.00;6.00;19.00;83.20;;;17.63;62.49;101852.41;5093238;28;8829;-59
2020/12/27 08:15:42;;;;;;;;;9.75;9.75;19.00;83.10;;;17.62;62.15;101847.19;5090298;28;8871;-59
2020/12/27 08:18:10;;;;;;;;;7.50;7.50;19.00;83.10;;;17.62;62.33;101842.69;5089581;28;8783;-59
2020/12/27 08:20:49;;;;;;;;;8.00;7.25;19.10;83.20;;;17.61;62.00;101850.84;5073570;28;9519;-59
2020/12/27 08:23:17;;;;;;;;;7.25;7.25;19.10;83.00;;;17.60;62.06;101841.09;5090697;28;8788;-59
2020/12/27 08:25:45;;;;;;;;;2.75;2.75;19.00;83.10;;;17.58;62.16;101844.75;5088505;28;8764;-59
2020/12/27 08:28:15;;;;;;;;;4.75;4.75;19.00;83.10;;;17.56;62.29;101837.84;5093095;28;8787;-58
2020/12/27 08:30:45;;;;;;;;;6.00;6.00;19.00;83.10;;;17.54;62.45;101823.75;5086867;28;8798;-59
2020/12/27 08:33:17;;;;;;;;;6.75;6.75;19.00;83.10;;;17.54;62.11;101834.44;5084443;28;8804;-59
2020/12/27 08:35:48;;;;;;;;;2.25;2.25;19.00;83.10;;;17.53;62.97;101838.09;5073841;28;9534;-58
2020/12/27 08:38:31;;;;;;;;;5.00;5.00;19.00;83.10;;;17.51;62.41;101835.53;5085659;28;8799;-58
2020/12/27 08:41:31;;;;;;;;;3.75;3.75;19.00;83.10;;;17.51;62.17;101843.53;5093693;28;8784;-58
2020/12/27 08:44:02;;;;;;;;;8.00;8.00;19.00;83.10;;;17.50;62.43;101844.53;5075850;28;9514;-59
2020/12/27 08:46:41;;;;;;;;;5.25;5.25;19.00;83.10;;;17.49;62.21;101837.47;5089469;28;8887;-59
2020/12/27 08:49:21;;;;;;;;;6.50;5.00;19.00;83.10;;;17.49;62.75;101825.94;5092041;28;8778;-58
2020/12/27 08:51:58;;;;;;;;;5.50;5.50;19.20;83.20;;;17.48;62.29;101824.25;5093352;28;8794;-58
2020/12/27 08:54:26;;;;;;;;;5.75;5.75;18.90;83.00;;;17.45;62.18;101819.13;5081041;28;9525;-59
2020/12/27 08:56:53;;;;;;;;;2.75;2.75;18.90;83.10;;;17.45;62.34;101827.13;5092759;28;8792;-58
2020/12/27 08:59:20;;;;;;;;;3.50;3.50;18.80;83.00;;;17.43;62.18;101819.25;5072840;28;8791;-59
2020/12/27 09:01:50;;;;;;;;;5.00;5.00;19.10;83.30;;;17.45;62.39;101819.13;5089880;28;8827;-59
2020/12/27 09:04:21;;;;;;;;;5.75;5.75;19.10;83.30;;;17.42;62.58;101814.88;5092082;28;8947;-58
2020/12/27 09:06:57;;;;;;;;;5.50;5.50;18.90;83.20;;;17.42;62.47;101817.53;5092744;28;8784;-59
2020/12/27 09:09:25;;;;;;;;;4.00;4.00;18.80;83.10;;;17.41;62.64;101807.00;5093683;28;8825;-58
2020/12/27 09:11:52;;;;;;;;;5.00;5.00;18.80;83.00;;;17.40;62.44;101806.13;5092809;28;8776;-59
2020/12/27 09:14:37;;;;;;;;;5.00;5.00;18.80;83.10;;;17.39;62.83;101788.41;5093279;28;9508;-58
2020/12/27 09:17:13;;;;;;;;;4.50;4.00;18.70;83.10;;;17.39;62.52;101788.41;5092949;28;8779;-59
2020/12/27 09:19:46;;;;;;;;;4.00;4.00;19.10;83.10;;;17.37;62.19;101785.00;5092419;28;8814;-58
2020/12/27 09:22:13;;;;;;;;;2.00;1.75;18.90;83.00;;;17.36;62.88;101781.47;5093137;28;8807;-59
2020/12/27 09:24:40;;;;;;;;;3.75;3.75;19.00;83.20;;;17.36;62.71;101783.31;5093305;28;8807;-58
2020/12/27 09:27:09;;;;;;;;;5.25;4.75;18.90;83.20;;;17.36;62.68;101777.97;5092883;28;8784;-59
2020/12/27 09:29:37;;;;;;;;;4.75;3.75;19.10;83.30;;;17.34;63.43;101774.56;5093491;28;8772;-58
2020/12/27 09:32:12;;;;;;;;;4.00;4.00;18.70;83.30;;;17.34;62.95;101770.06;5092787;28;8874;-59
2020/12/27 09:34:42;;;;;;;;;2.75;2.75;19.00;83.20;;;17.34;62.88;101775.41;5093221;28;8772;-59
2020/12/27 09:37:18;;;;;;;;;4.75;4.75;18.80;83.40;;;17.33;62.81;101768.38;5093180;28;8772;-59
2020/12/27 09:39:56;;;;;;;;;3.00;2.00;18.80;83.30;;;17.33;63.03;101778.22;5090746;28;8756;-59
2020/12/27 09:42:28;;;;;;;;;2.50;2.50;18.80;83.30;;;17.33;63.18;101770.19;5082329;28;8783;-58
2020/12/27 09:44:57;;;;;;;;;3.00;3.00;19.00;83.40;;;17.31;63.00;101775.66;5092046;28;9012;-58
2020/12/27 09:47:25;;;;;;;;;2.00;1.25;18.80;83.30;;;17.31;63.13;101772.97;5092300;28;8776;-59
2020/12/27 09:50:08;;;;;;;;;4.00;4.00;18.70;83.20;;;17.30;62.88;101770.41;5093074;28;8898;-58
2020/12/27 09:52:45;;;;;;;;;2.75;2.75;18.80;83.20;;;17.29;62.82;101782.94;5092389;28;8799;-59
2020/12/27 09:55:13;;;;;;;;;3.25;3.25;18.80;83.20;;;17.29;62.69;101777.59;5092579;28;8896;-59
2020/12/27 09:57:43;;;;;;;;;4.75;4.75;18.80;83.10;;;17.28;63.14;101786.59;5093089;28;8784;-59
2020/12/27 10:00:10;;;;;;;;;4.25;4.25;18.90;83.20;;;17.27;62.60;101792.88;5092396;28;9516;-59
2020/12/27 10:02:37;;;;;;;;;3.00;3.00;18.80;83.20;;;17.27;63.31;101790.22;5090983;28;8815;-58
2020/12/27 10:05:04;;;;;;;;;3.00;3.00;18.70;83.30;;;17.28;63.08;101780.41;5091865;28;8914;-59
2020/12/27 10:07:31;;;;;;;;;3.75;3.75;18.70;83.50;;;17.29;62.54;101784.75;5093027;28;8780;-58
2020/12/27 10:09:58;;;;;;;;;2.50;2.50;18.50;83.40;;;17.27;62.67;101784.88;5095886;28;8772;-59
2020/12/27 10:12:25;;;;;;;;;1.00;1.00;18.80;83.60;;;17.27;63.26;101778.69;5095568;28;8792;-58
2020/12/27 10:14:53;;;;;;;;;3.25;3.25;18.70;83.50;;;17.27;63.02;101786.69;5096311;28;8773;-59
2020/12/27 10:17:20;;;;;;;;;2.25;1.75;18.60;83.50;;;17.27;62.90;101784.03;5094431;28;8792;-59
2020/12/27 10:19:47;;;;;;;;;2.75;2.25;18.70;83.60;;;17.28;62.56;101801.75;5093489;28;8852;-58
2020/12/27 10:22:15;;;;;;;;;2.25;1.50;18.70;83.50;;;17.26;62.85;101798.34;5088232;28;8772;-59
2020/12/27 10:24:43;;;;;;;;;3.00;3.00;18.70;83.60;;;17.26;63.23;101806.38;5096345;28;8959;-58
2020/12/27 10:27:10;;;;;;;;;3.50;3.00;18.70;83.70;;;17.25;63.36;101807.31;5095450;28;8784;-59